Latest Weather Observations for Pallamana

IDS60901

Issued at 4:11 am CST Monday 24 July 2017 (issued every 10 minutes, with the page automatically refreshed every 10 minutes)

About weather observations | Map of Adelaide area stations | Latest observations for Adelaide area | Other Formats
Station Details ID: 024584 Name: PALLAMANA AERODROME Lat: -35.06 Lon: 139.23 Height: 45.0 m
Data from the previous 72 hours. | See also: Recent months at Pallamana
Date/Time
CST
Temp
°C
App
Temp
°C
Dew
Point
°C
Rel
Hum
%
Delta-T
°C
Wind Press
QNH
hPa
Press
MSL
hPa
Rain since
9am
mm
Dir  Spd
km/h
Gust
km/h
Spd
kts
Gust
kts
24/04:00am 6.3 3.4 4.7 89 0.7 NW 9 11 5 6 1020.5 1020.6 0.0
24/03:30am 6.7 3.1 5.1 89 0.7 NW 13 17 7 9 1020.6 1020.7 0.0
24/03:00am 7.2 3.8 6.1 93 0.5 NW 13 15 7 8 1020.7 1020.8 0.0
24/02:30am 6.5 3.3 4.9 89 0.7 NNW 11 13 6 7 1020.5 1020.6 0.0
24/02:00am 5.1 3.1 4.2 94 0.4 W 4 11 2 6 1020.7 1020.8 0.0
24/01:30am 7.2 4.9 5.9 91 0.6 NW 7 11 4 6 1020.6 1020.7 0.0
24/01:00am 7.5 4.2 6.2 91 0.6 NW 13 15 7 8 1020.8 1020.9 0.0
24/12:30am 6.9 3.8 5.5 91 0.6 WNW 11 13 6 7 1020.6 1020.7 0.0
24/12:00am 7.5 4.5 6.2 91 0.6 WNW 11 13 6 7 1020.7 1020.8 0.0
 
Date/Time
CST
Temp
°C
App
Temp
°C
Dew
Point
°C
Rel
Hum
%
Delta-T
°C
Wind Press
QNH
hPa
Press
MSL
hPa
Rain since
9am
mm
Dir  Spd
km/h
Gust
km/h
Spd
kts
Gust
kts
23/11:30pm 7.2 4.9 5.6 89 0.7 W 7 9 4 5 1020.6 1020.7 0.0
23/11:00pm 8.9 6.5 7.2 89 0.8 W 9 13 5 7 1020.8 1020.9 0.0
23/10:30pm 9.9 7.3 7.8 87 1.0 W 11 13 6 7 1020.5 1020.6 0.0
23/10:00pm 8.1 5.6 6.6 90 0.7 WNW 9 13 5 7 1020.5 1020.6 0.0
23/09:30pm 6.5 4.6 4.7 88 0.8 WNW 4 7 2 4 1020.3 1020.4 0.0
23/09:00pm 7.8 5.2 6.3 90 0.7 WNW 9 13 5 7 1020.0 1020.1 0.0
23/08:30pm 10.5 7.6 8.0 84 1.2 WNW 13 17 7 9 1019.8 1019.9 0.0
23/08:00pm 11.5 8.6 8.2 80 1.6 WNW 13 15 7 8 1019.6 1019.7 0.0
23/07:30pm 11.0 7.7 8.1 82 1.4 WNW 15 17 8 9 1019.4 1019.5 0.0
23/07:00pm 11.5 9.3 8.0 79 1.7 WNW 9 15 5 8 1019.2 1019.3 0.0
23/06:30pm 12.5 10.3 7.8 73 2.3 WNW 9 11 5 6 1018.9 1019.0 0.0
23/06:00pm 12.3 10.1 7.8 74 2.2 WSW 9 11 5 6 1018.5 1018.5 0.0
23/05:30pm 13.9 10.1 7.6 66 3.1 W 17 26 9 14 1018.0 1018.0 0.0
23/05:00pm 14.9 10.3 8.1 64 3.4 W 22 32 12 17 1017.8 1017.8 0.0
23/04:30pm 15.5 10.9 8.2 62 3.7 W 22 32 12 17 1017.6 1017.6 0.0
23/04:00pm 16.0 11.3 7.6 57 4.2 WSW 22 30 12 16 1017.3 1017.3 0.0
23/03:30pm 16.0 10.1 7.6 57 4.2 WSW 28 39 15 21 1017.0 1017.0 0.0
23/03:00pm 16.9 9.6 7.0 52 4.9 W 35 43 19 23 1016.8 1016.8 0.0
23/02:37pm 17.2 10.4 6.7 50 5.2 W 32 52 17 28 1016.6 1016.6 0.0
23/02:30pm 17.1 10.8 7.3 52 4.9 W 30 46 16 25 1016.7 1016.7 0.0
23/02:00pm 15.8 9.0 7.1 56 4.3 W 32 43 17 23 1016.7 1016.7 0.0
23/01:30pm 15.8 9.7 6.8 55 4.4 W 28 39 15 21 1016.8 1016.8 0.0
23/01:00pm 16.2 8.9 7.4 56 4.4 W 35 46 19 25 1016.8 1016.8 0.0
23/12:30pm 16.3 11.2 7.7 56 4.3 W 24 35 13 19 1017.0 1017.0 0.0
23/12:00pm 16.2 10.2 7.1 55 4.5 WNW 28 41 15 22 1017.3 1017.3 0.0
23/11:30am 17.0 11.6 7.9 55 4.6 W 26 39 14 21 1017.5 1017.5 0.0
23/11:00am 14.7 10.9 9.9 73 2.5 WSW 20 24 11 13 1017.7 1017.7 0.0
23/10:30am 15.9 10.9 7.9 59 4.0 WNW 24 37 13 20 1017.7 1017.7 0.0
23/10:00am 16.0 11.4 8.1 59 4.0 W 22 33 12 18 1017.6 1017.6 0.0
23/09:30am 15.5 11.9 8.4 62 3.6 WNW 17 20 9 11 1017.4 1017.4 0.0
23/09:00am 14.4 11.3 8.9 69 2.8 WNW 15 20 8 11 1017.1 1017.1 0.0
23/08:50am 13.8 11.4 8.6 71 2.6 WNW 11 20 6 11 1016.8 1016.8 0.0
23/08:30am 8.7 8.1 7.2 90 0.7 CALM 0 0 0 0 1016.9 1016.9 0.0
23/08:00am 6.7 4.8 5.1 89 0.7 SE 4 7 2 4 1016.6 1016.6 0.0
23/07:30am 10.7 8.1 7.6 81 1.5 W 11 13 6 7 1016.3 1016.3 0.0
23/07:00am 9.9 7.2 7.2 83 1.3 WNW 11 13 6 7 1016.0 1016.0 0.0
23/06:30am 10.2 8.0 7.7 84 1.2 WNW 9 17 5 9 1015.6 1015.6 0.0
23/06:00am 10.6 8.2 7.2 79 1.6 WNW 9 13 5 7 1015.7 1015.7 0.0
23/05:30am 9.6 7.2 7.1 84 1.2 NW 9 11 5 6 1015.6 1015.6 0.0
23/05:00am 8.6 6.1 6.7 88 0.9 NW 9 13 5 7 1015.4 1015.4 0.0
23/04:30am 8.7 5.9 6.8 88 0.9 NW 11 17 6 9 1015.3 1015.3 0.0
23/04:00am 9.5 7.1 6.9 84 1.2 NW 9 15 5 8 1015.3 1015.3 0.0
23/03:30am 8.2 5.5 5.5 83 1.2 NNW 9 13 5 7 1015.2 1015.2 0.0
23/03:00am 9.4 6.8 6.1 80 1.5 NNW 9 15 5 8 1015.2 1015.2 0.0
23/02:30am 9.9 7.3 6.2 78 1.7 NW 9 11 5 6 1015.3 1015.3 0.0
23/02:00am 9.6 6.8 5.2 74 2.0 NNW 9 15 5 8 1015.4 1015.4 0.0
23/01:30am 8.5 5.1 4.2 74 1.9 NNW 11 19 6 10 1015.1 1015.1 0.0
23/01:00am 8.9 3.9 3.6 69 2.3 N 19 24 10 13 1015.1 1015.1 0.0
23/12:30am 7.7 3.0 3.2 73 1.9 N 17 19 9 10 1015.1 1015.1 0.0
23/12:00am 8.0 3.6 2.8 70 2.2 N 15 19 8 10 1015.1 1015.1 0.0
 
Date/Time
CST
Temp
°C
App
Temp
°C
Dew
Point
°C
Rel
Hum
%
Delta-T
°C
Wind Press
QNH
hPa
Press
MSL
hPa
Rain since
9am
mm
Dir  Spd
km/h
Gust
km/h
Spd
kts
Gust
kts
22/11:30pm 8.7 4.3 2.8 66 2.5 NNW 15 17 8 9 1015.2 1015.2 0.0
22/11:00pm 9.0 4.6 2.6 64 2.7 N 15 17 8 9 1015.5 1015.5 0.0
22/10:30pm 9.9 5.8 2.1 58 3.3 NNW 13 17 7 9 1015.5 1015.5 0.0
22/10:00pm 9.5 5.0 2.4 61 3.0 N 15 15 8 8 1015.2 1015.2 0.0
22/09:30pm 12.2 7.3 1.7 48 4.5 NW 17 20 9 11 1015.1 1015.1 0.0
22/09:00pm 13.0 8.0 1.6 46 4.9 NW 17 22 9 12 1015.1 1015.1 0.0
22/08:30pm 14.1 7.8 1.4 42 5.5 NW 24 35 13 19 1014.7 1014.7 0.0
22/08:00pm 14.7 7.6 1.3 40 5.8 NW 28 35 15 19 1014.4 1014.4 0.0
22/07:30pm 15.1 7.6 1.3 39 6.0 NW 30 39 16 21 1014.3 1014.3 0.0
22/07:00pm 14.7 8.9 2.3 43 5.5 NW 22 30 12 16 1014.1 1014.1 0.0
22/06:30pm 15.0 9.2 2.4 42 5.6 NW 22 30 12 16 1014.0 1014.0 0.0
22/06:00pm 13.5 10.9 4.1 53 4.3 N 7 9 4 5 1014.0 1014.0 0.0
22/05:30pm 14.4 11.2 3.3 47 5.0 N 9 13 5 7 1013.8 1013.8 0.0
22/05:00pm 17.0 12.9 2.5 37 6.6 NW 13 17 7 9 1013.7 1013.7 0.0
22/04:30pm 18.1 12.9 2.7 35 7.1 NNW 19 28 10 15 1013.5 1013.5 0.0
22/04:00pm 18.7 12.1 2.0 32 7.6 NNW 26 35 14 19 1013.3 1013.3 0.0
22/03:30pm 19.2 13.3 1.9 31 7.9 NW 22 35 12 19 1013.4 1013.4 0.0
22/03:00pm 19.6 12.6 1.9 30 8.1 NW 28 39 15 21 1013.6 1013.6 0.0
22/02:30pm 19.5 13.0 2.4 32 7.9 NNW 26 41 14 22 1013.8 1013.8 0.0
22/02:00pm 19.6 13.5 2.6 32 7.9 NW 24 32 13 17 1014.2 1014.2 0.0
22/01:30pm 19.4 13.6 2.2 32 7.9 NNW 22 30 12 16 1014.6 1014.6 0.0
22/01:00pm 19.1 12.5 2.0 32 7.8 NW 26 37 14 20 1015.2 1015.2 0.0
22/12:30pm 19.0 11.2 1.9 32 7.8 NNW 32 43 17 23 1015.7 1015.7 0.0
22/12:04pm 17.8 9.9 1.1 32 7.4 NNW 32 50 17 27 1016.1 1016.1 0.0
22/12:00pm 17.5 9.0 0.6 32 7.4 NNW 35 50 19 27 1016.2 1016.2 0.0
22/11:30am 18.5 10.6 1.3 31 7.7 NNW 32 50 17 27 1016.8 1016.8 0.0
22/11:00am 18.2 10.3 1.1 31 7.6 NNW 32 48 17 26 1017.4 1017.4 0.0
22/10:51am 17.6 9.9 0.0 30 7.6 NNW 30 46 16 25 1017.6 1017.6 0.0
22/10:30am 16.6 11.0 1.1 35 6.8 N 20 28 11 15 1017.9 1017.9 0.0
22/10:00am 14.7 9.1 1.3 40 5.8 N 20 26 11 14 1018.1 1018.1 0.0
22/09:30am 13.9 9.0 1.7 43 5.3 N 17 22 9 12 1018.4 1018.4 0.0
22/09:00am 13.5 8.9 1.4 43 5.2 NNW 15 19 8 10 1018.5 1018.5 0.0
22/08:30am 13.5 8.4 0.7 41 5.4 NW 17 24 9 13 1018.7 1018.8 0.0
22/08:00am 14.1 6.4 0.0 38 5.9 NW 30 44 16 24 1018.5 1018.5 0.0
22/07:30am 14.4 6.1 -0.5 36 6.2 NW 33 48 18 26 1017.9 1017.9 0.0
22/07:12am 14.3 6.0 -0.4 36 6.1 NW 33 52 18 28 1017.6 1017.6 0.0
22/07:00am 14.4 5.6 -0.9 35 6.3 NW 35 50 19 27 1017.4 1017.4 0.0
22/06:43am 14.3 5.6 -0.7 35 6.2 NW 35 54 19 29 1017.2 1017.2 0.0
22/06:30am 14.3 5.6 -0.7 35 6.2 NW 35 48 19 26 1017.1 1017.1 0.0
22/06:00am 14.3 5.6 -0.7 35 6.2 NW 35 50 19 27 1016.9 1016.9 0.0
22/05:30am 14.4 5.7 -0.5 36 6.2 NW 35 54 19 29 1016.8 1016.8 0.0
22/05:01am 14.2 6.4 -0.5 36 6.1 NW 30 50 16 27 1016.8 1016.8 0.0
22/05:00am 14.2 6.5 -0.2 37 6.0 NW 30 44 16 24 1016.9 1016.9 0.0
22/04:49am 14.3 7.0 -0.3 36 6.1 NW 28 48 15 26 1017.2 1017.2 0.0
22/04:30am 14.4 7.4 -0.2 36 6.1 NNW 26 35 14 19 1017.6 1017.6 0.0
22/04:00am 13.1 9.6 1.4 45 5.0 NNW 9 17 5 9 1017.8 1017.8 0.0
22/03:30am 13.0 9.0 0.6 42 5.2 W 11 26 6 14 1018.1 1018.1 0.0
22/03:29am 11.7 7.9 1.5 49 4.3 WSW 11 26 6 14 1018.1 1018.1 0.0
22/03:00am 6.4 4.3 4.1 85 1.0 WSW 4 7 2 4 1018.1 1018.1 0.0
22/02:30am 6.8 5.3 3.2 78 1.5 CALM 0 0 0 0 1018.0 1018.0 0.0
22/02:00am 6.6 5.2 3.3 79 1.4 CALM 0 6 0 3 1018.0 1018.0 0.0
22/01:30am 6.5 3.3 2.9 78 1.5 NW 9 17 5 9 1017.8 1017.8 0.0
22/01:00am 5.5 1.7 2.0 78 1.4 N 11 15 6 8 1017.6 1017.6 0.0
22/12:30am 6.4 3.4 2.2 74 1.7 N 7 11 4 6 1017.6 1017.6 0.0
22/12:00am 6.6 2.9 2.2 73 1.8 N 11 17 6 9 1017.8 1017.8 0.0
 
Date/Time
CST
Temp
°C
App
Temp
°C
Dew
Point
°C
Rel
Hum
%
Delta-T
°C
Wind Press
QNH
hPa
Press
MSL
hPa
Rain since
9am
mm
Dir  Spd
km/h
Gust
km/h
Spd
kts
Gust
kts
21/11:30pm 6.0 1.1 2.0 75 1.6 N 17 19 9 10 1018.1 1018.1 0.0
21/11:00pm 5.6 1.5 2.1 78 1.4 N 13 17 7 9 1018.6 1018.7 0.0
21/10:30pm 5.6 1.9 2.1 78 1.4 N 11 13 6 7 1018.8 1018.9 0.0
21/10:00pm 6.0 2.3 2.6 79 1.4 N 11 13 6 7 1019.0 1019.1 0.0
21/09:30pm 5.6 1.2 2.9 83 1.1 N 15 17 8 9 1019.2 1019.3 0.0
21/09:00pm 6.1 2.8 2.7 79 1.4 N 9 13 5 7 1019.6 1019.7 0.0
21/08:30pm 5.6 2.0 2.9 83 1.1 N 11 13 6 7 1019.6 1019.7 0.0
21/08:00pm 4.4 1.0 1.9 84 1.0 N 9 11 5 6 1019.6 1019.7 0.0
21/07:30pm 7.2 4.1 3.4 77 1.6 N 9 13 5 7 1019.6 1019.7 0.0
21/07:00pm 6.6 3.5 3.8 82 1.2 N 9 11 5 6 1019.6 1019.7 0.0
21/06:30pm 9.5 6.5 4.3 70 2.3 NNW 9 13 5 7 1019.8 1019.9 0.0
21/06:00pm 10.5 6.7 3.9 63 2.9 NNW 13 15 7 8 1019.5 1019.6 0.0
21/05:30pm 11.8 7.2 3.7 57 3.6 N 17 20 9 11 1019.3 1019.4 0.0
21/05:00pm 14.1 9.0 3.2 48 4.9 NNE 19 22 10 12 1019.2 1019.3 0.0
21/04:30pm 15.6 9.5 3.0 43 5.7 NNE 24 32 13 17 1019.0 1019.1 0.0
21/04:00pm 16.4 10.8 3.3 41 6.0 NNE 22 30 12 16 1019.1 1019.2 0.0
21/03:30pm 16.5 9.5 2.2 38 6.4 NNE 28 32 15 17 1019.2 1019.3 0.0
21/03:00pm 16.9 10.8 2.9 39 6.4 NNE 24 32 13 17 1019.1 1019.2 0.0
21/02:30pm 16.5 9.6 2.5 39 6.3 N 28 32 15 17 1019.1 1019.2 0.0
21/02:00pm 16.5 9.8 3.8 42 5.9 NNE 28 35 15 19 1019.2 1019.3 0.0
21/01:30pm 15.8 9.4 3.3 43 5.7 NNE 26 32 14 17 1019.5 1019.6 0.0
21/01:00pm 15.4 8.2 3.0 43 5.6 NNE 30 35 16 19 1020.1 1020.2 0.0
21/12:30pm 14.8 7.1 2.4 43 5.5 NNE 32 37 17 20 1020.5 1020.6 0.0
21/12:00pm 14.3 6.6 2.3 44 5.3 NNE 32 41 17 22 1021.2 1021.3 0.0
21/11:30am 13.2 5.6 3.0 50 4.5 NNE 32 39 17 21 1021.9 1022.0 0.0
21/11:00am 12.3 6.4 4.1 57 3.7 NNE 24 35 13 19 1022.5 1022.6 0.0
21/10:30am 10.3 4.8 3.9 64 2.8 NNE 22 30 12 16 1022.8 1022.9 0.0
21/10:00am 8.4 3.3 4.0 74 1.9 NNE 20 26 11 14 1023.1 1023.2 0.0
21/09:30am 6.7 1.8 3.9 82 1.2 NNE 19 22 10 12 1023.1 1023.2 0.0
21/09:00am 5.3 0.7 3.9 91 0.6 N 17 24 9 13 1023.0 1023.1 0.2
21/08:30am 3.8 0.2 3.1 95 0.3 N 11 15 6 8 1023.1 1023.2 0.2
21/08:00am 1.3 -1.9 0.8 96 0.2 N 7 9 4 5 1022.9 1023.0 0.2
21/07:30am -1.1 - - - - NNW 6 7 3 4 1022.6 1022.7 0.2
21/07:00am -1.3 - - - - CALM 0 4 0 2 1022.3 1022.4 0.2
21/06:30am 0.1 - - - - NNW 6 7 3 4 1022.2 1022.3 0.2
21/06:00am -0.6 - - - - CALM 0 0 0 0 1022.1 1022.2 0.2
21/05:30am -0.3 - - - - NNW 4 7 2 4 1022.0 1022.1 0.2
21/05:00am -0.1 - - - - W 4 6 2 3 1021.7 1021.8 0.2
21/04:30am 0.6 -2.7 0.0 96 0.2 W 7 9 4 5 1021.6 1021.7 0.2

Latest Capital City Observations: Canberra | Sydney | Melbourne | Brisbane | Adelaide | Perth | Hobart | Darwin

Other Formats:

Comma delimited format used in spreadsheet applications
http://www.bom.gov.au/fwo/IDS60901/IDS60901.95818.axf

JavaScript Object Notation format (JSON) in row-major order
http://www.bom.gov.au/fwo/IDS60901/IDS60901.95818.json